Cupertino, CA (95014)

3:13 PM PDT on September 03, 2015 (GMT -0700)
APRSWXNET | | Change Station
CLOSE
Current Station
Personal Weather Station
Location: Cupertino, CA
Elevation: 567 ft
Nearby Weather Stations

Elev 567 ft 37.30 °N, 122.06 °W | Updated 39 minutes ago

Clear
Clear
76 °F
Feels Like 78 °F
N
3
Wind Variable Wind from North
Gusts 0.0 mph

Today
High -- | Low -- °F
--% Chance of Precip.
Yesterday
High -- | Low -- °F
Precip. -- in
6:40 AM 7:34 PM
Waning Gibbous, 66% visible
Pressure 29.89 in
Visibility 10.0 miles
Clouds Clear
Heat Index 78 °F
Dew Point 51 °F
Humidity 41%
Rainfall in
Snow Depth Not available.
UV 8 out of 12
Pollen 8.00 out of 12
Air Quality Not available.
Flu Activity Not available.
METAR KNUQ 032156Z 27009KT 10SM CLR 23/07 A2989 RMK AO2 SLP122 T02330072
Pressure 29.89 in
Visibility 10.0 miles
Clouds Clear
Heat Index 78 °F
Dew Point 51 °F
Humidity 41%
Rainfall in
Snow Depth Not available.
UV 8 out of 12
Pollen 8.00 out of 12
Air Quality Not available.
Flu Activity Not available.
METAR KNUQ 032156Z 27009KT 10SM CLR 23/07 A2989 RMK AO2 SLP122 T02330072

10-Day Weather Forecast

×

Almanac

Astronomy

Sep. 03, 2015 Rise Set
Actual Time
Civil Twilight
Nautical Twilight
Astronomical Twilight
Moon
Length of Visible Light
Length of Day
Tomorrow will be .
, % of the Moon is Illuminated

Today's Extremes

State Highs State Lows

Community

WunderPhotos

Upload Photos

1,852,048 photos uploaded!

WunderBlogs® & News

Nearby

Air Quality

  Air Quality AQ Index Pollutant
Not available.

Snow Depth

Station Depth Elevation

Earthquake Activity

City Distance Mag. Time & Date
Minimum magnitude displayed is 2.5.

Coastal Water Temperatures

Place Temperature

Stations

Nearby Weather Stations

Station Location Temp. Windchill Dew Point Humidity Wind Precip. Elev Updated Type